Time;durP1;ratioP1;P1;durP2;ratioP2;P2;SDS_P1;SDS_P2;PMS_P1;PMS_P2;Temp;Humidity;BMP_temperature;BMP_pressure;BME280_temperature;BME280_humidity;BME280_pressure;Samples;Min_cycle;Max_cycle;Signal;HPM_P1;HPM_P2
2023/06/14 00:02:18;;;;;;;6.33;4.33;;;;;;;12.44;100.00;96568.28;4897724;28;20666;-66
2023/06/14 00:04:48;;;;;;;4.50;4.10;;;;;;;12.46;100.00;96570.72;4927334;28;20634;-67
2023/06/14 00:07:16;;;;;;;4.90;4.40;;;;;;;12.44;100.00;96578.91;4901121;28;20281;-67
2023/06/14 00:09:44;;;;;;;4.87;4.40;;;;;;;12.42;100.00;96575.66;4919286;28;20584;-68
2023/06/14 00:12:11;;;;;;;4.63;3.90;;;;;;;12.40;100.00;96576.88;4931490;28;20302;-69
2023/06/14 00:14:40;;;;;;;4.30;4.00;;;;;;;12.33;100.00;96573.44;4907427;28;20350;-66
2023/06/14 00:17:09;;;;;;;5.53;4.27;;;;;;;12.26;100.00;96563.66;4911351;28;20235;-67
2023/06/14 00:19:38;;;;;;;6.27;4.00;;;;;;;12.22;100.00;96562.44;4914677;28;21345;-67
2023/06/14 00:22:06;;;;;;;4.17;3.77;;;;;;;12.19;100.00;96570.00;4931971;28;20207;-67
2023/06/14 00:24:34;;;;;;;4.17;3.87;;;;;;;12.16;100.00;96571.25;4881115;28;20512;-66
2023/06/14 00:27:01;;;;;;;4.90;4.43;;;;;;;12.09;100.00;96563.31;4929582;28;20259;-69
2023/06/14 00:29:29;;;;;;;5.93;4.87;;;;;;;11.99;100.00;96565.56;4933345;28;20322;-68
2023/06/14 00:31:58;;;;;;;4.47;4.00;;;;;;;11.96;100.00;96564.13;4907848;28;20231;-68
2023/06/14 00:34:26;;;;;;;4.10;3.90;;;;;;;11.94;100.00;96565.38;4895496;28;20749;-68
2023/06/14 00:36:53;;;;;;;4.10;3.80;;;;;;;11.93;100.00;96558.41;4930805;28;20638;-67
2023/06/14 00:39:21;;;;;;;4.53;4.27;;;;;;;11.87;100.00;96566.16;4881303;28;25492;-66
2023/06/14 00:41:49;;;;;;;7.17;5.10;;;;;;;11.86;100.00;96553.91;4933397;28;20215;-67
2023/06/14 00:44:17;;;;;;;4.00;3.80;;;;;;;11.75;100.00;96557.22;4935929;28;20203;-68
2023/06/14 00:46:46;;;;;;;5.67;4.73;;;;;;;11.74;100.00;96555.59;4912390;28;20294;-68
2023/06/14 00:49:15;;;;;;;4.70;4.30;;;;;;;11.71;100.00;96564.75;4896161;28;20210;-69
2023/06/14 00:51:43;;;;;;;3.80;3.60;;;;;;;11.65;100.00;96556.84;4931920;28;20219;-68
2023/06/14 00:54:11;;;;;;;4.10;3.90;;;;;;;11.64;100.00;96561.31;4931361;28;20218;-68
2023/06/14 00:56:39;;;;;;;4.97;3.87;;;;;;;11.55;100.00;96563.38;4889044;28;20223;-66
2023/06/14 00:59:07;;;;;;;4.80;4.37;;;;;;;11.57;100.00;96563.16;4938590;28;20214;-69
2023/06/14 01:01:34;;;;;;;4.83;4.43;;;;;;;11.61;100.00;96561.72;4926846;28;20309;-67
2023/06/14 01:04:03;;;;;;;4.73;4.33;;;;;;;11.52;100.00;96555.81;4868279;28;20461;-66
2023/06/14 01:06:42;;;;;;;4.27;3.87;;;;;;;11.56;100.00;96565.00;4934914;28;20206;-67
2023/06/14 01:09:16;;;;;;;4.97;4.57;;;;;;;11.58;100.00;96557.66;4923839;28;20211;-68
2023/06/14 01:11:49;;;;;;;5.00;4.50;;;;;;;11.49;100.00;96566.03;4887392;28;20365;-68
2023/06/14 01:14:17;;;;;;;4.87;4.57;;;;;;;11.48;100.00;96561.75;4935555;28;20520;-67
2023/06/14 01:16:46;;;;;;;4.20;3.90;;;;;;;11.43;100.00;96554.38;4932756;28;20221;-67
2023/06/14 01:19:15;;;;;;;4.07;3.87;;;;;;;11.41;100.00;96554.63;4850661;28;20785;-66
2023/06/14 01:21:44;;;;;;;4.57;4.27;;;;;;;11.40;100.00;96545.03;4930495;28;20426;-69
2023/06/14 01:24:13;;;;;;;4.53;4.13;;;;;;;11.34;100.00;96547.66;4927660;28;20273;-68
2023/06/14 01:26:45;;;;;;;4.67;4.27;;;;;;;11.25;100.00;96549.69;4884985;28;21134;-67
2023/06/14 01:29:16;;;;;;;4.30;3.90;;;;;;;11.22;100.00;96561.53;4929283;28;20207;-67
2023/06/14 01:31:45;;;;;;;4.50;4.10;;;;;;;11.15;100.00;96550.09;4937919;28;20206;-67
2023/06/14 01:34:12;;;;;;;5.47;4.20;;;;;;;11.13;100.00;96558.28;4907990;28;20234;-67
2023/06/14 01:36:42;;;;;;;4.80;4.23;;;;;;;11.04;100.00;96556.84;4899925;28;20330;-66
2023/06/14 01:39:11;;;;;;;4.40;4.07;;;;;;;11.00;100.00;96555.63;4924208;28;20212;-69
2023/06/14 01:41:40;;;;;;;4.20;3.90;;;;;;;11.00;100.00;96551.13;4888317;28;20402;-68
2023/06/14 01:44:08;;;;;;;4.50;4.20;;;;;;;10.98;100.00;96550.50;4930443;28;20208;-68
2023/06/14 01:46:36;;;;;;;4.27;3.83;;;;;;;10.93;100.00;96546.81;4933953;28;20953;-67
2023/06/14 01:49:04;;;;;;;5.63;4.00;;;;;;;10.89;100.00;96549.06;4907232;28;20958;-71
2023/06/14 01:51:32;;;;;;;5.17;4.77;;;;;;;10.86;100.00;96552.13;4902763;28;20944;-69
2023/06/14 01:54:00;;;;;;;4.03;3.83;;;;;;;10.89;100.00;96554.38;4926232;28;20706;-69
2023/06/14 01:56:28;;;;;;;4.40;4.20;;;;;;;10.85;100.00;96553.16;4930398;28;20695;-70
2023/06/14 01:58:57;;;;;;;4.83;4.53;;;;;;;10.85;100.00;96556.59;4892707;28;20333;-69
2023/06/14 02:01:24;;;;;;;4.70;4.30;;;;;;;10.77;100.00;96553.31;4928573;28;20418;-69
2023/06/14 02:03:53;;;;;;;4.50;4.20;;;;;;;10.82;100.00;96559.66;4928761;28;20266;-70
2023/06/14 02:06:21;;;;;;;4.53;4.23;;;;;;;10.77;100.00;96562.09;4872464;28;20669;-69
2023/06/14 02:08:48;;;;;;;4.20;3.90;;;;;;;10.73;100.00;96552.91;4927424;28;20278;-69
2023/06/14 02:11:16;;;;;;;5.30;4.90;;;;;;;10.74;100.00;96565.13;4929556;28;20210;-69
2023/06/14 02:13:44;;;;;;;4.90;4.60;;;;;;;10.69;100.00;96564.94;4891326;28;20694;-70
2023/06/14 02:16:14;;;;;;;4.57;4.27;;;;;;;10.56;100.00;96571.00;4935159;28;20330;-69
2023/06/14 02:18:42;;;;;;;4.80;4.43;;;;;;;10.56;100.00;96565.69;4929180;28;20226;-70
2023/06/14 02:21:09;;;;;;;4.77;4.37;;;;;;;10.60;100.00;96564.28;4872395;28;20221;-69
2023/06/14 02:23:37;;;;;;;5.43;5.03;;;;;;;10.53;100.00;96568.75;4932589;28;20493;-70
2023/06/14 02:26:05;;;;;;;6.10;4.73;;;;;;;10.55;100.00;96559.56;4931986;28;20293;-69
2023/06/14 02:28:32;;;;;;;5.40;5.00;;;;;;;10.51;100.00;96562.84;4932335;28;20378;-69
2023/06/14 02:31:00;;;;;;;5.43;4.93;;;;;;;10.53;100.00;96572.19;4883775;28;20239;-70
2023/06/14 02:33:29;;;;;;;4.50;4.20;;;;;;;10.46;100.00;96566.06;4926210;28;20230;-69
2023/06/14 02:35:57;;;;;;;4.23;4.03;;;;;;;10.46;100.00;96566.06;4903615;28;20258;-69
2023/06/14 02:38:25;;;;;;;4.47;4.17;;;;;;;10.41;100.00;96568.50;4896484;28;20761;-68
2023/06/14 02:40:52;;;;;;;5.10;4.80;;;;;;;10.40;100.00;96567.66;4931068;28;20203;-68
2023/06/14 02:43:20;;;;;;;5.30;4.73;;;;;;;10.45;100.00;96564.44;4932217;28;20519;-67
2023/06/14 02:45:48;;;;;;;4.10;3.87;;;;;;;10.56;100.00;96557.75;4887318;28;20310;-66
2023/06/14 02:48:15;;;;;;;4.70;4.40;;;;;;;10.73;100.00;96560.03;4926779;28;20254;-69
2023/06/14 02:50:44;;;;;;;4.50;4.20;;;;;;;10.82;100.00;96558.84;4909831;28;20289;-68
2023/06/14 02:53:12;;;;;;;4.77;4.37;;;;;;;10.93;100.00;96557.41;4894631;28;20215;-68
2023/06/14 02:55:40;;;;;;;4.90;4.50;;;;;;;11.03;100.00;96563.16;4928372;28;20842;-67
2023/06/14 02:58:08;;;;;;;5.03;4.63;;;;;;;11.12;100.00;96564.59;4926849;28;20366;-70
2023/06/14 03:00:36;;;;;;;5.50;5.00;;;;;;;11.17;100.00;96556.00;4894626;28;22610;-68
2023/06/14 03:03:04;;;;;;;5.20;4.17;;;;;;;11.20;100.00;96552.97;4933048;28;20207;-70
2023/06/14 03:05:32;;;;;;;4.67;4.37;;;;;;;11.24;100.00;96561.31;4930105;28;20202;-68
2023/06/14 03:08:02;;;;;;;4.80;4.50;;;;;;;11.34;100.00;96558.28;4873851;28;20918;-70
2023/06/14 03:10:30;;;;;;;5.20;4.50;;;;;;;11.36;100.00;96558.88;4930831;28;20199;-67
2023/06/14 03:12:57;;;;;;;5.27;4.77;;;;;;;11.36;100.00;96551.72;4912636;28;20305;-69
2023/06/14 03:15:25;;;;;;;4.90;4.60;;;;;;;11.36;100.00;96559.69;4928907;28;20326;-67
2023/06/14 03:17:53;;;;;;;5.00;4.60;;;;;;;11.40;100.00;96554.81;4895301;28;20246;-68
2023/06/14 03:20:21;;;;;;;6.13;4.73;;;;;;;11.44;100.00;96558.69;4928498;28;20341;-70
2023/06/14 03:22:49;;;;;;;4.53;4.23;;;;;;;11.46;100.00;96561.13;4898786;28;20634;-69
2023/06/14 03:25:18;;;;;;;4.60;4.20;;;;;;;11.51;100.00;96562.13;4927476;28;20694;-70
2023/06/14 03:27:46;;;;;;;5.00;4.57;;;;;;;11.53;100.00;96569.91;4933494;28;20930;-70
2023/06/14 03:30:14;;;;;;;5.43;5.03;;;;;;;11.54;100.00;96582.94;4928856;28;20778;-67
2023/06/14 03:32:42;;;;;;;4.83;4.37;;;;;;;11.49;100.00;96571.34;4888509;28;20606;-69
2023/06/14 03:35:16;;;;;;;4.30;4.07;;;;;;;11.43;100.00;96567.66;4929974;28;20219;-69
2023/06/14 03:37:44;;;;;;;4.80;4.50;;;;;;;11.51;100.00;96580.69;4927544;28;20230;-68
2023/06/14 03:40:14;;;;;;;5.00;4.70;;;;;;;11.56;100.00;96580.09;4891540;28;20679;-70
2023/06/14 03:42:43;;;;;;;4.83;4.43;;;;;;;11.57;100.00;96587.88;4934274;28;20205;-69
2023/06/14 03:45:11;;;;;;;4.90;4.50;;;;;;;11.53;100.00;96586.63;4931781;28;20285;-69
2023/06/14 03:47:38;;;;;;;5.00;4.63;;;;;;;11.45;100.00;96581.53;4925784;28;20963;-68
2023/06/14 03:50:07;;;;;;;5.37;4.93;;;;;;;11.38;100.00;96578.91;4890452;28;20765;-69
2023/06/14 03:52:34;;;;;;;5.00;4.70;;;;;;;11.47;100.00;96590.09;4930741;28;20206;-68
2023/06/14 03:55:02;;;;;;;5.17;4.77;;;;;;;11.36;100.00;96590.72;4895232;28;20634;-66
2023/06/14 03:57:33;;;;;;;5.27;4.87;;;;;;;11.42;100.00;96600.50;4932786;28;20268;-68
2023/06/14 04:00:05;;;;;;;6.43;4.70;;;;;;;11.34;100.00;96598.84;4931158;28;20215;-70
2023/06/14 04:02:32;;;;;;;5.33;4.97;;;;;;;11.34;100.00;96604.16;4911932;28;20222;-68
2023/06/14 04:05:01;;;;;;;4.97;4.67;;;;;;;11.25;100.00;96600.91;4896629;28;20768;-70
2023/06/14 04:07:29;;;;;;;4.67;4.37;;;;;;;11.23;100.00;96602.13;4929259;28;20215;-69
2023/06/14 04:09:56;;;;;;;4.77;4.50;;;;;;;11.16;100.00;96612.72;4897544;28;20301;-66
2023/06/14 04:12:24;;;;;;;6.17;4.30;;;;;;;11.19;100.00;96606.19;4931437;28;20281;-70
2023/06/14 04:14:52;;;;;;;5.20;4.90;;;;;;;11.18;100.00;96612.53;4937331;28;20309;-68
2023/06/14 04:17:21;;;;;;;5.40;4.90;;;;;;;11.20;100.00;96619.28;4934654;28;20243;-69
2023/06/14 04:19:48;;;;;;;5.20;4.87;;;;;;;11.24;100.00;96612.53;4895753;28;21029;-72
2023/06/14 04:22:16;;;;;;;5.03;4.70;;;;;;;11.29;100.00;96620.69;4932405;28;20786;-73
2023/06/14 04:24:44;;;;;;;5.07;4.77;;;;;;;11.28;100.00;96615.59;4904860;28;20375;-69
2023/06/14 04:27:21;;;;;;;5.63;5.13;;;;;;;11.29;100.00;96619.88;4933839;28;20785;-71
2023/06/14 04:29:53;;;;;;;5.07;4.77;;;;;;;11.34;100.00;96616.63;4912698;28;20214;-67
2023/06/14 04:32:22;;;;;;;5.90;5.50;;;;;;;11.40;100.00;96629.06;4926055;28;20209;-68
2023/06/14 04:34:53;;;;;;;5.40;5.00;;;;;;;11.46;100.00;96622.94;4934849;28;20211;-67
2023/06/14 04:37:21;;;;;;;5.10;4.70;;;;;;;11.51;100.00;96630.31;4897000;28;20218;-69
2023/06/14 04:39:49;;;;;;;7.30;5.53;;;;;;;11.71;100.00;96630.31;4934693;28;20328;-70
2023/06/14 04:42:20;;;;;;;5.90;5.50;;;;;;;11.86;100.00;96614.97;4902875;28;20207;-68
2023/06/14 04:44:49;;;;;;;5.60;5.10;;;;;;;11.87;100.00;96627.22;4931685;28;20836;-70
2023/06/14 04:47:16;;;;;;;5.43;4.93;;;;;;;11.91;100.00;96632.13;4933387;28;21038;-68
2023/06/14 04:49:45;;;;;;;5.20;4.90;;;;;;;11.75;100.00;96626.22;4936050;28;20314;-68
2023/06/14 04:52:13;;;;;;;5.53;5.03;;;;;;;11.76;100.00;96625.19;4895568;28;21020;-68
2023/06/14 04:54:42;;;;;;;5.20;4.80;;;;;;;11.77;100.00;96629.47;4932517;28;20778;-69
2023/06/14 04:57:14;;;;;;;6.10;5.57;;;;;;;11.69;100.00;96632.34;4904271;28;20687;-70
2023/06/14 04:59:43;;;;;;;5.47;5.07;;;;;;;11.76;100.00;96635.00;4937794;28;20242;-69
2023/06/14 05:02:11;;;;;;;5.97;5.57;;;;;;;11.75;100.00;96636.03;4926858;28;20218;-69
2023/06/14 05:04:40;;;;;;;5.70;5.20;;;;;;;11.76;100.00;96637.66;4937205;28;21385;-70
2023/06/14 05:07:10;;;;;;;5.77;5.03;;;;;;;11.79;100.00;96630.09;4895728;28;20624;-70
2023/06/14 05:09:38;;;;;;;7.83;5.47;;;;;;;11.83;100.00;96643.78;4928361;28;20294;-70
2023/06/14 05:12:08;;;;;;;6.03;5.63;;;;;;;11.79;100.00;96635.41;4916507;28;20202;-69
2023/06/14 05:14:36;;;;;;;6.47;5.70;;;;;;;11.86;100.00;96641.53;4917105;28;20242;-69
2023/06/14 05:17:04;;;;;;;6.13;5.53;;;;;;;11.89;100.00;96637.66;4930936;28;20271;-71
2023/06/14 05:19:31;;;;;;;5.87;5.47;;;;;;;11.94;100.00;96640.50;4933763;28;20230;-71
2023/06/14 05:21:59;;;;;;;5.60;5.10;;;;;;;11.94;100.00;96640.50;4927228;28;20692;-68
2023/06/14 05:24:30;;;;;;;8.50;6.00;;;;;;;12.01;100.00;96636.03;4904324;28;20289;-69
2023/06/14 05:26:58;;;;;;;8.87;5.70;;;;;;;12.20;100.00;96643.34;4931329;28;20741;-69
2023/06/14 05:29:27;;;;;;;5.17;4.87;;;;;;;12.50;100.00;96642.88;4909155;28;20473;-69
2023/06/14 05:31:57;;;;;;;5.47;5.07;;;;;;;13.01;100.00;96644.69;4932879;28;20230;-70
2023/06/14 05:34:25;;;;;;;5.70;5.30;;;;;;;13.32;100.00;96645.72;4929047;28;20281;-69
2023/06/14 05:36:52;;;;;;;6.87;5.33;;;;;;;13.60;100.00;96652.53;4937361;28;20322;-71
2023/06/14 05:39:20;;;;;;;6.60;6.00;;;;;;;13.60;100.00;96652.53;4890613;28;20320;-69
2023/06/14 05:41:49;;;;;;;5.73;5.27;;;;;;;13.54;100.00;96650.75;4935299;28;20199;-69
2023/06/14 05:44:17;;;;;;;6.00;5.33;;;;;;;13.78;100.00;96656.28;4900314;28;20806;-69
2023/06/14 05:46:45;;;;;;;6.30;5.80;;;;;;;14.19;100.00;96659.41;4935184;28;20334;-69
2023/06/14 05:49:12;;;;;;;5.57;4.90;;;;;;;14.38;100.00;96654.09;4926795;28;20658;-70
2023/06/14 05:51:40;;;;;;;6.03;5.20;;;;;;;14.61;100.00;96656.91;4933191;28;20719;-69
2023/06/14 05:54:08;;;;;;;6.17;5.67;;;;;;;14.90;100.00;96659.06;4893616;28;20738;-69
2023/06/14 05:56:35;;;;;;;6.67;5.30;;;;;;;15.21;100.00;96665.22;4934478;28;20286;-70
2023/06/14 05:59:04;;;;;;;5.80;5.30;;;;;;;15.34;100.00;96664.25;4897991;28;20234;-69
2023/06/14 06:01:33;;;;;;;5.23;4.83;;;;;;;15.49;100.00;96661.16;4934294;28;20207;-68
2023/06/14 06:04:01;;;;;;;5.67;5.27;;;;;;;15.54;100.00;96658.59;4934882;28;20269;-70
2023/06/14 06:06:29;;;;;;;5.10;4.70;;;;;;;15.70;100.00;96667.00;4927031;28;20934;-69
2023/06/14 06:08:57;;;;;;;5.63;5.23;;;;;;;15.79;100.00;96662.97;4927749;28;20230;-69
2023/06/14 06:11:25;;;;;;;5.47;4.97;;;;;;;15.74;100.00;96660.97;4898066;28;20204;-69
2023/06/14 06:13:55;;;;;;;6.07;5.57;;;;;;;15.97;100.00;96670.09;4932591;28;20203;-69
2023/06/14 06:16:24;;;;;;;5.33;4.83;;;;;;;16.08;100.00;96673.81;4906298;28;20195;-69
2023/06/14 06:18:52;;;;;;;5.00;4.57;;;;;;;15.96;100.00;96673.81;4935187;28;20461;-68
2023/06/14 06:21:20;;;;;;;5.40;5.00;;;;;;;16.02;100.00;96677.41;4923222;28;20216;-67
2023/06/14 06:23:47;;;;;;;5.10;4.70;;;;;;;16.08;100.00;96676.47;4931802;28;20377;-70
2023/06/14 06:26:15;;;;;;;5.63;5.20;;;;;;;15.93;100.00;96681.47;4890750;28;20219;-70
2023/06/14 06:28:43;;;;;;;5.33;4.93;;;;;;;16.09;100.00;96679.97;4935125;28;20223;-69
2023/06/14 06:31:11;;;;;;;5.80;5.30;;;;;;;16.08;100.00;96679.16;4902130;28;20301;-71
2023/06/14 06:33:40;;;;;;;4.90;4.60;;;;;;;16.36;100.00;96693.69;4932109;28;20912;-71
2023/06/14 06:36:08;;;;;;;5.57;5.17;;;;;;;16.14;100.00;96696.13;4927530;28;20235;-71
2023/06/14 06:38:38;;;;;;;5.83;5.40;;;;;;;16.19;100.00;96697.06;4927238;28;20348;-71
2023/06/14 06:41:06;;;;;;;6.10;5.70;;;;;;;16.04;100.00;96694.84;4889662;28;20936;-69
2023/06/14 06:43:33;;;;;;;5.83;5.47;;;;;;;16.07;100.00;96704.25;4935882;28;20200;-71
2023/06/14 06:46:01;;;;;;;5.67;5.27;;;;;;;16.14;100.00;96704.97;4902361;28;20203;-68
2023/06/14 06:48:29;;;;;;;5.93;5.53;;;;;;;16.10;100.00;96697.63;4930613;28;20229;-70
2023/06/14 06:50:58;;;;;;;6.67;5.87;;;;;;;15.88;100.00;96700.84;4928365;28;20864;-68
2023/06/14 06:53:25;;;;;;;5.97;5.47;;;;;;;15.73;100.00;96706.63;4931193;28;20698;-66
2023/06/14 06:56:09;;;;;;;6.87;5.77;;;;;;;15.81;100.00;96703.59;4931324;28;20228;-68
2023/06/14 06:58:36;;;;;;;5.60;5.20;;;;;;;15.95;100.00;96696.22;4898119;28;20255;-69
2023/06/14 07:01:04;;;;;;;6.13;5.53;;;;;;;16.38;100.00;96704.94;4901906;28;20230;-68
2023/06/14 07:03:32;;;;;;;8.07;5.80;;;;;;;16.86;100.00;96705.72;4932061;28;20254;-70
2023/06/14 07:06:01;;;;;;;8.17;5.33;;;;;;;17.20;100.00;96708.56;4930723;28;20211;-68
2023/06/14 07:08:29;;;;;;;6.40;6.00;;;;;;;17.21;100.00;96709.34;4928558;28;20238;-68
2023/06/14 07:10:56;;;;;;;6.73;6.13;;;;;;;17.16;100.00;96711.94;4927887;28;20207;-68
2023/06/14 07:13:24;;;;;;;5.90;5.50;;;;;;;17.15;100.00;96713.00;4893965;28;20215;-68
2023/06/14 07:15:55;;;;;;;5.47;5.07;;;;;;;17.24;100.00;96705.41;4901008;28;21730;-67
2023/06/14 07:18:22;;;;;;;6.40;5.50;;;;;;;17.22;100.00;96719.00;4933487;28;20223;-69
2023/06/14 07:20:50;;;;;;;5.43;5.13;;;;;;;17.58;100.00;96719.69;4925116;28;20862;-68
2023/06/14 07:23:19;;;;;;;6.03;5.17;;;;;;;17.41;100.00;96713.50;4928506;28;20203;-68
2023/06/14 07:25:47;;;;;;;6.00;5.40;;;;;;;17.58;100.00;96717.00;4927430;28;20930;-70
2023/06/14 07:28:15;;;;;;;6.53;5.93;;;;;;;17.61;100.00;96711.16;4892730;28;20777;-68
2023/06/14 07:30:43;;;;;;;5.47;5.13;;;;;;;17.93;99.06;96710.63;4910427;28;20281;-68
2023/06/14 07:33:12;;;;;;;5.80;5.33;;;;;;;18.28;97.26;96721.41;4924341;28;20217;-69
2023/06/14 07:35:40;;;;;;;9.57;7.67;;;;;;;18.56;98.79;96714.28;4929408;28;20293;-70
2023/06/14 07:38:09;;;;;;;6.33;5.70;;;;;;;18.73;93.39;96716.94;4930223;28;20235;-68
2023/06/14 07:40:38;;;;;;;5.60;5.17;;;;;;;18.64;93.42;96703.97;4923933;28;20330;-70
2023/06/14 07:43:06;;;;;;;5.17;4.87;;;;;;;18.74;89.32;96705.94;4932646;28;20286;-67
2023/06/14 07:45:34;;;;;;;5.50;5.00;;;;;;;18.70;89.64;96710.19;4883895;28;20306;-68
2023/06/14 07:48:01;;;;;;;4.73;4.43;;;;;;;18.61;85.59;96719.72;4914142;28;20335;-68
2023/06/14 07:50:30;;;;;;;4.60;4.20;;;;;;;18.78;86.48;96722.38;4929166;28;20271;-71
2023/06/14 07:52:57;;;;;;;5.40;4.93;;;;;;;18.92;83.83;96722.81;4929232;28;20796;-69
2023/06/14 07:55:25;;;;;;;5.27;4.87;;;;;;;19.00;85.56;96721.63;4926892;28;20311;-70
2023/06/14 07:57:55;;;;;;;4.63;4.27;;;;;;;19.11;78.54;96727.91;4927862;28;20254;-68
2023/06/14 08:00:23;;;;;;;5.23;4.77;;;;;;;19.23;79.92;96723.22;4896990;28;20211;-67
2023/06/14 08:02:51;;;;;;;4.30;4.00;;;;;;;19.32;78.72;96728.94;4900448;28;20202;-69
2023/06/14 08:05:25;;;;;;;7.33;6.73;;;;;;;19.20;77.73;96723.72;4925807;28;20293;-68
2023/06/14 08:07:53;;;;;;;5.33;4.83;;;;;;;19.23;76.91;96725.91;4929091;28;20230;-68
2023/06/14 08:10:21;;;;;;;4.67;4.37;;;;;;;19.13;76.49;96729.28;4923400;28;20731;-68
2023/06/14 08:12:49;;;;;;;5.17;4.60;;;;;;;19.00;79.23;96732.34;4931977;28;20342;-70
2023/06/14 08:15:18;;;;;;;5.13;4.53;;;;;;;19.12;74.04;96727.66;4897205;28;20222;-69
2023/06/14 08:17:50;;;;;;;4.73;4.40;;;;;;;19.15;71.68;96734.41;4899479;28;20234;-67
2023/06/14 08:20:17;;;;;;;4.90;4.50;;;;;;;19.27;75.49;96731.59;4932282;28;20261;-69
2023/06/14 08:22:48;;;;;;;5.37;4.97;;;;;;;19.27;68.65;96735.09;4927338;28;20804;-70
2023/06/14 08:25:15;;;;;;;4.67;4.27;;;;;;;19.40;66.39;96736.59;4925838;28;20238;-69
2023/06/14 08:27:44;;;;;;;4.77;4.37;;;;;;;19.42;64.37;96731.78;4930977;28;20242;-70
2023/06/14 08:30:12;;;;;;;4.10;3.90;;;;;;;19.60;65.36;96732.47;4929974;28;20227;-69
2023/06/14 08:32:42;;;;;;;4.40;4.10;;;;;;;19.64;66.07;96736.28;4873301;28;20294;-68
2023/06/14 08:35:10;;;;;;;5.00;4.60;;;;;;;19.96;66.60;96743.59;4927468;28;20210;-68
2023/06/14 08:37:39;;;;;;;4.33;3.87;;;;;;;20.06;60.65;96735.63;4930544;28;20769;-70
2023/06/14 08:40:19;;;;;;;4.10;3.77;;;;;;;20.58;59.78;96730.63;4924351;28;20487;-69
2023/06/14 08:42:49;;;;;;;4.07;3.67;;;;;;;20.97;54.41;96737.56;4929555;28;20727;-70
2023/06/14 08:45:17;;;;;;;4.17;3.30;;;;;;;21.16;49.98;96737.94;4932078;28;20207;-69
2023/06/14 08:47:46;;;;;;;4.13;3.80;;;;;;;20.93;48.64;96725.72;4892310;28;20259;-70
2023/06/14 08:50:16;;;;;;;3.67;3.37;;;;;;;21.01;52.00;96738.66;4895061;28;20218;-68
2023/06/14 08:52:57;;;;;;;4.40;3.90;;;;;;;20.88;51.65;96734.59;4928738;28;20559;-69
2023/06/14 08:55:27;;;;;;;5.33;4.23;;;;;;;20.62;54.83;96739.78;4925724;28;20206;-70
2023/06/14 08:57:55;;;;;;;4.57;4.17;;;;;;;20.76;56.49;96740.16;4928909;28;20501;-69
2023/06/14 09:00:24;;;;;;;4.60;4.20;;;;;;;21.06;53.20;96733.34;4931266;28;20634;-69
2023/06/14 09:02:57;;;;;;;4.57;4.27;;;;;;;21.40;56.65;96740.19;4894183;28;20262;-69
2023/06/14 09:05:26;;;;;;;4.97;4.43;;;;;;;21.42;51.90;96737.22;4902597;28;20243;-68
2023/06/14 09:07:56;;;;;;;3.80;3.60;;;;;;;21.68;50.84;96740.81;4931904;28;20258;-68
2023/06/14 09:10:25;;;;;;;5.07;4.73;;;;;;;21.51;52.66;96738.31;4924937;28;20215;-70
2023/06/14 09:12:53;;;;;;;5.10;4.63;;;;;;;21.72;50.94;96731.13;4932890;28;20235;-69
2023/06/14 09:15:21;;;;;;;4.87;4.50;;;;;;;22.16;50.41;96746.00;4934690;28;20199;-68
2023/06/14 09:17:49;;;;;;;4.27;3.97;;;;;;;22.18;51.30;96738.44;4896617;28;21285;-69
2023/06/14 09:20:18;;;;;;;6.80;4.13;;;;;;;22.33;51.58;96747.59;4932094;28;20782;-70
2023/06/14 09:22:47;;;;;;;4.73;4.27;;;;;;;22.18;50.83;96749.22;4900347;28;20219;-71
2023/06/14 09:25:15;;;;;;;4.70;4.40;;;;;;;22.14;51.84;96741.94;4933076;28;20225;-69
2023/06/14 09:28:00;;;;;;;3.83;3.60;;;;;;;22.04;51.81;96750.84;4935238;28;20281;-69
2023/06/14 09:30:27;;;;;;;4.60;4.20;;;;;;;22.02;52.61;96745.72;4932909;28;20771;-71
2023/06/14 09:32:56;;;;;;;4.90;4.50;;;;;;;22.29;49.49;96754.63;4894953;28;20851;-70
2023/06/14 09:35:30;;;;;;;6.10;4.20;;;;;;;22.39;48.46;96747.34;4932944;28;20207;-70
2023/06/14 09:37:58;;;;;;;4.20;3.97;;;;;;;22.79;50.23;96744.84;4908012;28;20319;-71
2023/06/14 09:40:27;;;;;;;4.17;3.93;;;;;;;22.60;47.21;96743.84;4932650;28;20314;-70
2023/06/14 09:42:57;;;;;;;3.80;3.60;;;;;;;22.58;48.99;96751.41;4928086;28;20241;-71
2023/06/14 09:45:29;;;;;;;4.60;4.20;;;;;;;22.43;48.80;96758.38;4936230;28;20294;-68
2023/06/14 09:47:57;;;;;;;4.43;4.13;;;;;;;22.34;49.87;96757.31;4929674;28;20226;-69
2023/06/14 09:50:36;;;;;;;4.27;3.87;;;;;;;22.26;49.72;96745.16;4880540;28;20210;-69
2023/06/14 09:53:07;;;;;;;4.50;4.10;;;;;;;22.45;49.75;96756.22;4918188;28;20207;-69
2023/06/14 09:55:36;;;;;;;5.10;4.57;;;;;;;22.53;48.55;96752.19;4931611;28;20196;-70
2023/06/14 09:58:06;;;;;;;3.80;3.60;;;;;;;22.45;50.31;96756.22;4927591;28;20227;-71
2023/06/14 10:00:36;;;;;;;5.53;5.03;;;;;;;22.34;49.93;96762.72;4933326;28;20222;-70
2023/06/14 10:03:08;;;;;;;5.00;4.60;;;;;;;22.29;49.51;96754.63;4934628;28;20686;-69
2023/06/14 10:05:38;;;;;;;4.80;4.40;;;;;;;22.40;49.50;96751.66;4879140;28;20317;-70
2023/06/14 10:08:09;;;;;;;4.70;4.30;;;;;;;22.60;50.32;96749.22;4911852;28;20227;-70
2023/06/14 10:10:39;;;;;;;4.67;3.80;;;;;;;22.90;48.13;96759.16;4930543;28;20810;-69
2023/06/14 10:13:07;;;;;;;3.93;3.73;;;;;;;22.95;47.96;96761.03;4935611;28;20211;-70
2023/06/14 10:15:39;;;;;;;4.70;4.37;;;;;;;23.06;47.81;96759.91;4931309;28;20583;-71
2023/06/14 10:18:14;;;;;;;4.93;4.53;;;;;;;22.89;48.85;96754.84;4930576;28;20222;-70
2023/06/14 10:20:52;;;;;;;4.70;4.30;;;;;;;22.89;49.79;96754.84;4900625;28;20243;-70
2023/06/14 10:23:22;;;;;;;4.40;4.17;;;;;;;22.83;48.41;96751.31;4933167;28;20206;-70
2023/06/14 10:25:51;;;;;;;4.30;3.90;;;;;;;22.95;49.81;96747.53;4926617;28;20204;-71
2023/06/14 10:28:22;;;;;;;4.23;4.03;;;;;;;23.08;51.21;96748.81;4932936;28;20227;-68
2023/06/14 10:31:06;;;;;;;4.67;4.13;;;;;;;23.54;49.12;96751.38;4929756;28;20302;-69
2023/06/14 10:33:35;;;;;;;8.53;4.23;;;;;;;23.45;47.69;96752.22;4931760;28;20282;-71
2023/06/14 10:36:27;;;;;;;4.83;4.53;;;;;;;22.95;48.01;96750.22;4932953;28;20245;-69
2023/06/14 10:38:59;;;;;;;4.37;4.03;;;;;;;22.95;48.38;96744.84;4884209;28;20231;-68
2023/06/14 10:41:28;;;;;;;5.13;4.13;;;;;;;23.05;47.62;96757.47;4930037;28;20687;-67
2023/06/14 10:44:48;;;;;;;4.70;4.30;;;;;;;22.97;47.96;96753.47;4930476;28;20293;-69
2023/06/14 10:47:26;;;;;;;5.40;4.27;;;;;;;22.82;48.27;96763.22;4936029;28;20678;-70
2023/06/14 10:49:55;;;;;;;4.10;3.90;;;;;;;22.82;48.74;96755.09;4923801;28;21030;-68
2023/06/14 10:52:27;;;;;;;4.33;3.90;;;;;;;22.80;50.27;96754.56;4927592;28;20202;-70
2023/06/14 10:55:00;;;;;;;5.03;3.77;;;;;;;22.23;49.80;96751.09;4896570;28;20358;-70
2023/06/14 10:57:28;;;;;;;4.57;3.70;;;;;;;22.13;49.85;96751.91;4933037;28;20222;-68
2023/06/14 10:59:56;;;;;;;4.90;3.83;;;;;;;22.02;49.60;96753.00;4930963;28;20218;-68
2023/06/14 11:03:13;;;;;;;4.43;4.03;;;;;;;22.05;49.25;96745.19;4931077;28;20262;-68
2023/06/14 11:05:50;;;;;;;4.60;4.40;;;;;;;22.17;49.44;96744.91;4828601;29;20698;-71
2023/06/14 11:08:29;;;;;;;3.87;3.67;;;;;;;22.04;49.63;96738.16;4835982;29;20238;-69
2023/06/14 11:11:00;;;;;;;4.60;4.20;;;;;;;22.38;49.93;96742.19;4867169;28;20214;-71
2023/06/14 11:13:28;;;;;;;4.70;4.40;;;;;;;22.37;48.07;96746.81;4908309;28;20203;-69
2023/06/14 11:15:58;;;;;;;4.03;3.73;;;;;;;21.92;48.36;96743.81;4931545;28;20210;-68
2023/06/14 11:18:27;;;;;;;4.30;4.00;;;;;;;22.27;48.53;96736.00;4930093;28;20222;-70
2023/06/14 11:20:55;;;;;;;4.07;3.83;;;;;;;22.63;48.18;96738.69;4902710;28;21080;-69
2023/06/14 11:23:24;;;;;;;4.23;3.97;;;;;;;22.94;48.32;96738.59;4931640;28;20813;-70
2023/06/14 11:25:52;;;;;;;4.37;3.97;;;;;;;23.63;45.35;96742.66;4893360;28;20234;-69
2023/06/14 11:28:21;;;;;;;4.40;4.10;;;;;;;23.96;45.84;96740.28;4933568;28;20811;-68
2023/06/14 11:30:49;;;;;;;4.73;4.33;;;;;;;24.12;42.65;96739.09;4908150;28;21589;-70
2023/06/14 11:33:20;;;;;;;3.60;3.40;;;;;;;24.21;41.62;96742.00;4929547;28;20877;-69
2023/06/14 11:35:47;;;;;;;4.13;3.93;;;;;;;25.14;41.42;96741.09;4926405;28;20207;-70
2023/06/14 11:38:15;;;;;;;3.43;3.13;;;;;;;25.09;40.61;96733.03;4931436;28;20235;-71
2023/06/14 11:40:44;;;;;;;3.83;3.53;;;;;;;25.41;38.71;96741.59;4880833;28;20248;-70